sensor_id;sensor_type;location;lat;lon;timestamp;pressure;altitude;pressure_sealevel;temperature;humidity
42067;BME280;27734;47.028;28.820;2022-10-16T00:00:22;101567.06;;;5.01;62.89
42067;BME280;27734;47.028;28.820;2022-10-16T00:03:13;101566.48;;;4.94;62.53
42067;BME280;27734;47.028;28.820;2022-10-16T00:05:45;101567.96;;;4.90;62.91
42067;BME280;27734;47.028;28.820;2022-10-16T00:08:16;101565.80;;;4.84;63.02
42067;BME280;27734;47.028;28.820;2022-10-16T00:10:47;101570.64;;;4.80;63.06
42067;BME280;27734;47.028;28.820;2022-10-16T00:13:18;101569.63;;;4.78;62.84
42067;BME280;27734;47.028;28.820;2022-10-16T00:15:50;101567.38;;;4.71;63.45
42067;BME280;27734;47.028;28.820;2022-10-16T00:18:21;101568.58;;;4.64;63.03
42067;BME280;27734;47.028;28.820;2022-10-16T00:20:53;101571.39;;;4.55;63.09
42067;BME280;27734;47.028;28.820;2022-10-16T00:23:24;101577.91;;;4.50;63.56
42067;BME280;27734;47.028;28.820;2022-10-16T00:25:59;101573.82;;;4.42;63.35
42067;BME280;27734;47.028;28.820;2022-10-16T00:28:31;101577.64;;;4.35;63.86
42067;BME280;27734;47.028;28.820;2022-10-16T00:31:05;101577.53;;;4.34;64.07
42067;BME280;27734;47.028;28.820;2022-10-16T00:33:37;101575.58;;;4.31;63.58
42067;BME280;27734;47.028;28.820;2022-10-16T00:36:12;101575.22;;;4.26;64.16
42067;BME280;27734;47.028;28.820;2022-10-16T00:38:43;101579.16;;;4.21;63.40
42067;BME280;27734;47.028;28.820;2022-10-16T00:41:16;101572.38;;;4.23;63.92
42067;BME280;27734;47.028;28.820;2022-10-16T00:43:50;101569.67;;;4.22;63.71
42067;BME280;27734;47.028;28.820;2022-10-16T00:46:23;101578.92;;;4.18;64.22
42067;BME280;27734;47.028;28.820;2022-10-16T00:49:00;101576.33;;;4.18;63.62
42067;BME280;27734;47.028;28.820;2022-10-16T00:51:35;101583.10;;;4.16;64.56
42067;BME280;27734;47.028;28.820;2022-10-16T00:54:10;101583.63;;;4.12;64.53
42067;BME280;27734;47.028;28.820;2022-10-16T00:56:42;101587.01;;;4.11;64.20
42067;BME280;27734;47.028;28.820;2022-10-16T00:59:18;101584.05;;;4.06;64.76
42067;BME280;27734;47.028;28.820;2022-10-16T01:01:50;101580.19;;;4.01;64.59
42067;BME280;27734;47.028;28.820;2022-10-16T01:04:22;101582.42;;;3.96;64.33
42067;BME280;27734;47.028;28.820;2022-10-16T01:07:00;101584.89;;;3.95;64.89
42067;BME280;27734;47.028;28.820;2022-10-16T01:09:40;101585.02;;;3.96;64.54
42067;BME280;27734;47.028;28.820;2022-10-16T01:12:16;101586.28;;;4.02;65.44
42067;BME280;27734;47.028;28.820;2022-10-16T01:14:54;101586.23;;;4.12;65.01
42067;BME280;27734;47.028;28.820;2022-10-16T01:17:31;101583.22;;;4.18;64.88
42067;BME280;27734;47.028;28.820;2022-10-16T01:20:11;101582.78;;;4.23;64.87
42067;BME280;27734;47.028;28.820;2022-10-16T01:22:54;101582.48;;;4.30;65.40
42067;BME280;27734;47.028;28.820;2022-10-16T01:25:46;101581.67;;;4.31;65.05
42067;BME280;27734;47.028;28.820;2022-10-16T01:28:27;101580.54;;;4.28;65.39
42067;BME280;27734;47.028;28.820;2022-10-16T01:31:00;101587.20;;;4.24;64.91
42067;BME280;27734;47.028;28.820;2022-10-16T01:33:37;101589.80;;;4.24;65.35
42067;BME280;27734;47.028;28.820;2022-10-16T01:36:13;101578.72;;;4.27;65.32
42067;BME280;27734;47.028;28.820;2022-10-16T01:38:49;101577.82;;;4.26;65.34
42067;BME280;27734;47.028;28.820;2022-10-16T01:41:24;101590.04;;;4.27;65.60
42067;BME280;27734;47.028;28.820;2022-10-16T01:44:03;101582.36;;;4.29;65.01
42067;BME280;27734;47.028;28.820;2022-10-16T01:46:38;101578.95;;;4.30;65.15
42067;BME280;27734;47.028;28.820;2022-10-16T01:49:11;101588.09;;;4.25;64.85
42067;BME280;27734;47.028;28.820;2022-10-16T01:51:45;101586.72;;;4.18;65.22
42067;BME280;27734;47.028;28.820;2022-10-16T01:54:19;101592.20;;;4.11;65.30
42067;BME280;27734;47.028;28.820;2022-10-16T01:56:52;101594.55;;;4.08;66.00
42067;BME280;27734;47.028;28.820;2022-10-16T01:59:26;101600.06;;;4.01;65.75
42067;BME280;27734;47.028;28.820;2022-10-16T02:02:04;101595.92;;;3.92;65.25
42067;BME280;27734;47.028;28.820;2022-10-16T02:04:39;101601.31;;;3.84;65.88
42067;BME280;27734;47.028;28.820;2022-10-16T02:07:13;101596.27;;;3.75;65.95
42067;BME280;27734;47.028;28.820;2022-10-16T02:09:45;101609.31;;;3.65;65.51
42067;BME280;27734;47.028;28.820;2022-10-16T02:12:18;101613.50;;;3.52;65.91
42067;BME280;27734;47.028;28.820;2022-10-16T02:14:52;101607.56;;;3.43;65.64
42067;BME280;27734;47.028;28.820;2022-10-16T02:17:24;101615.98;;;3.40;65.71
42067;BME280;27734;47.028;28.820;2022-10-16T02:19:56;101614.97;;;3.38;65.76
42067;BME280;27734;47.028;28.820;2022-10-16T02:22:32;101618.72;;;3.32;66.31
42067;BME280;27734;47.028;28.820;2022-10-16T02:25:08;101619.01;;;3.24;66.02
42067;BME280;27734;47.028;28.820;2022-10-16T02:27:44;101616.80;;;3.19;65.99
42067;BME280;27734;47.028;28.820;2022-10-16T02:30:24;101625.00;;;3.13;66.99
42067;BME280;27734;47.028;28.820;2022-10-16T02:32:56;101626.16;;;3.06;66.53
42067;BME280;27734;47.028;28.820;2022-10-16T02:35:30;101626.69;;;3.02;66.43
42067;BME280;27734;47.028;28.820;2022-10-16T02:38:02;101622.02;;;2.98;67.18
42067;BME280;27734;47.028;28.820;2022-10-16T02:40:34;101626.30;;;2.98;66.12
42067;BME280;27734;47.028;28.820;2022-10-16T02:43:07;101630.30;;;2.94;66.94
42067;BME280;27734;47.028;28.820;2022-10-16T02:45:38;101632.77;;;2.93;66.87
42067;BME280;27734;47.028;28.820;2022-10-16T02:48:10;101638.75;;;2.92;67.09
42067;BME280;27734;47.028;28.820;2022-10-16T02:50:41;101642.24;;;2.92;66.23
42067;BME280;27734;47.028;28.820;2022-10-16T02:53:12;101643.01;;;2.91;66.94
42067;BME280;27734;47.028;28.820;2022-10-16T02:55:43;101646.79;;;2.95;66.73
42067;BME280;27734;47.028;28.820;2022-10-16T02:58:15;101644.20;;;2.95;67.09
42067;BME280;27734;47.028;28.820;2022-10-16T03:00:46;101649.52;;;2.96;66.71
42067;BME280;27734;47.028;28.820;2022-10-16T03:03:17;101648.71;;;2.97;67.43
42067;BME280;27734;47.028;28.820;2022-10-16T03:05:48;101648.58;;;2.96;66.96
42067;BME280;27734;47.028;28.820;2022-10-16T03:08:19;101653.51;;;2.93;66.99
42067;BME280;27734;47.028;28.820;2022-10-16T03:10:53;101648.86;;;2.88;67.68
42067;BME280;27734;47.028;28.820;2022-10-16T03:13:24;101659.48;;;2.81;67.45
42067;BME280;27734;47.028;28.820;2022-10-16T03:15:55;101664.27;;;2.77;67.47
42067;BME280;27734;47.028;28.820;2022-10-16T03:18:27;101666.06;;;2.67;67.25
42067;BME280;27734;47.028;28.820;2022-10-16T03:20:58;101668.27;;;2.63;66.84
42067;BME280;27734;47.028;28.820;2022-10-16T03:23:30;101668.93;;;2.60;67.46
42067;BME280;27734;47.028;28.820;2022-10-16T03:26:01;101665.80;;;2.54;67.68
42067;BME280;27734;47.028;28.820;2022-10-16T03:28:32;101662.02;;;2.50;67.65
42067;BME280;27734;47.028;28.820;2022-10-16T03:31:03;101669.52;;;2.47;67.60
42067;BME280;27734;47.028;28.820;2022-10-16T03:33:34;101672.11;;;2.47;67.61
42067;BME280;27734;47.028;28.820;2022-10-16T03:36:05;101676.27;;;2.45;68.00
42067;BME280;27734;47.028;28.820;2022-10-16T03:38:37;101680.42;;;2.43;68.22
42067;BME280;27734;47.028;28.820;2022-10-16T03:41:08;101673.41;;;2.42;68.25
42067;BME280;27734;47.028;28.820;2022-10-16T03:43:39;101673.14;;;2.39;67.92
42067;BME280;27734;47.028;28.820;2022-10-16T03:46:10;101673.14;;;2.39;68.13
42067;BME280;27734;47.028;28.820;2022-10-16T03:48:41;101670.55;;;2.39;68.04
42067;BME280;27734;47.028;28.820;2022-10-16T03:51:12;101663.81;;;2.41;68.27
42067;BME280;27734;47.028;28.820;2022-10-16T03:53:43;101670.45;;;2.48;68.32
42067;BME280;27734;47.028;28.820;2022-10-16T03:56:15;101667.20;;;2.50;68.04
42067;BME280;27734;47.028;28.820;2022-10-16T03:58:46;101670.45;;;2.58;68.90
42067;BME280;27734;47.028;28.820;2022-10-16T04:01:17;101676.44;;;2.67;68.32
42067;BME280;27734;47.028;28.820;2022-10-16T04:03:48;101674.73;;;2.68;68.57
42067;BME280;27734;47.028;28.820;2022-10-16T04:06:19;101679.30;;;2.70;68.30
42067;BME280;27734;47.028;28.820;2022-10-16T04:08:50;101690.55;;;2.71;68.23
42067;BME280;27734;47.028;28.820;2022-10-16T04:11:21;101689.53;;;2.69;68.44
42067;BME280;27734;47.028;28.820;2022-10-16T04:13:52;101698.73;;;2.65;68.16
42067;BME280;27734;47.028;28.820;2022-10-16T04:16:24;101691.45;;;2.61;68.36
42067;BME280;27734;47.028;28.820;2022-10-16T04:18:55;101692.75;;;2.56;68.46
42067;BME280;27734;47.028;28.820;2022-10-16T04:21:26;101694.80;;;2.50;68.57
42067;BME280;27734;47.028;28.820;2022-10-16T04:23:57;101700.22;;;2.43;68.87
42067;BME280;27734;47.028;28.820;2022-10-16T04:26:28;101700.61;;;2.37;69.17
42067;BME280;27734;47.028;28.820;2022-10-16T04:28:59;101700.97;;;2.31;68.95
42067;BME280;27734;47.028;28.820;2022-10-16T04:31:31;101704.84;;;2.26;69.14
42067;BME280;27734;47.028;28.820;2022-10-16T04:34:02;101700.42;;;2.25;68.96
42067;BME280;27734;47.028;28.820;2022-10-16T04:36:33;101707.30;;;2.25;68.72
42067;BME280;27734;47.028;28.820;2022-10-16T04:39:04;101712.88;;;2.29;68.96
42067;BME280;27734;47.028;28.820;2022-10-16T04:41:35;101703.33;;;2.39;68.87
42067;BME280;27734;47.028;28.820;2022-10-16T04:44:07;101708.25;;;2.46;69.06
42067;BME280;27734;47.028;28.820;2022-10-16T04:46:38;101710.75;;;2.55;69.16
42067;BME280;27734;47.028;28.820;2022-10-16T04:49:09;101712.58;;;2.56;69.08
42067;BME280;27734;47.028;28.820;2022-10-16T04:51:40;101716.47;;;2.61;69.04
42067;BME280;27734;47.028;28.820;2022-10-16T04:54:11;101725.28;;;2.63;69.35
42067;BME280;27734;47.028;28.820;2022-10-16T04:56:42;101729.70;;;2.64;69.17
42067;BME280;27734;47.028;28.820;2022-10-16T04:59:15;101724.87;;;2.58;69.24
42067;BME280;27734;47.028;28.820;2022-10-16T05:01:47;101728.13;;;2.56;69.07
42067;BME280;27734;47.028;28.820;2022-10-16T05:04:18;101729.79;;;2.55;68.91
42067;BME280;27734;47.028;28.820;2022-10-16T05:06:49;101730.06;;;2.58;69.33
42067;BME280;27734;47.028;28.820;2022-10-16T05:09:20;101734.20;;;2.56;69.65
42067;BME280;27734;47.028;28.820;2022-10-16T05:11:52;101736.04;;;2.57;68.93
42067;BME280;27734;47.028;28.820;2022-10-16T05:14:23;101734.84;;;2.54;69.41
42067;BME280;27734;47.028;28.820;2022-10-16T05:16:54;101742.48;;;2.52;69.83
42067;BME280;27734;47.028;28.820;2022-10-16T05:19:25;101750.25;;;2.52;69.49
42067;BME280;27734;47.028;28.820;2022-10-16T05:21:57;101748.45;;;2.51;70.15
42067;BME280;27734;47.028;28.820;2022-10-16T05:24:28;101749.84;;;2.47;69.93
42067;BME280;27734;47.028;28.820;2022-10-16T05:26:59;101757.20;;;2.43;70.17
42067;BME280;27734;47.028;28.820;2022-10-16T05:29:30;101765.64;;;2.40;70.36
42067;BME280;27734;47.028;28.820;2022-10-16T05:32:01;101763.05;;;2.40;70.46
42067;BME280;27734;47.028;28.820;2022-10-16T05:34:33;101763.81;;;2.39;70.31
42067;BME280;27734;47.028;28.820;2022-10-16T05:37:04;101770.96;;;2.42;70.54
42067;BME280;27734;47.028;28.820;2022-10-16T05:39:35;101770.57;;;2.47;70.29
42067;BME280;27734;47.028;28.820;2022-10-16T05:42:07;101778.75;;;2.52;71.33
42067;BME280;27734;47.028;28.820;2022-10-16T05:44:38;101778.89;;;2.54;70.76
42067;BME280;27734;47.028;28.820;2022-10-16T05:47:09;101777.37;;;2.56;70.93
42067;BME280;27734;47.028;28.820;2022-10-16T05:49:40;101775.31;;;2.62;71.07
42067;BME280;27734;47.028;28.820;2022-10-16T05:52:11;101779.20;;;2.67;71.62
42067;BME280;27734;47.028;28.820;2022-10-16T05:54:42;101780.64;;;2.74;71.55
42067;BME280;27734;47.028;28.820;2022-10-16T05:57:15;101781.81;;;2.77;71.25
42067;BME280;27734;47.028;28.820;2022-10-16T05:59:46;101784.17;;;2.84;70.94
42067;BME280;27734;47.028;28.820;2022-10-16T06:02:17;101785.87;;;2.94;71.75
42067;BME280;27734;47.028;28.820;2022-10-16T06:04:48;101790.33;;;3.05;71.68
42067;BME280;27734;47.028;28.820;2022-10-16T06:07:19;101794.36;;;3.12;71.93
42067;BME280;27734;47.028;28.820;2022-10-16T06:09:51;101790.46;;;3.17;71.71
42067;BME280;27734;47.028;28.820;2022-10-16T06:12:23;101794.22;;;3.21;71.73
42067;BME280;27734;47.028;28.820;2022-10-16T06:14:54;101793.45;;;3.22;71.75
42067;BME280;27734;47.028;28.820;2022-10-16T06:17:25;101800.73;;;3.26;71.66
42067;BME280;27734;47.028;28.820;2022-10-16T06:19:56;101805.52;;;3.32;71.58
42067;BME280;27734;47.028;28.820;2022-10-16T06:22:27;101802.68;;;3.39;72.58
42067;BME280;27734;47.028;28.820;2022-10-16T06:24:58;101806.70;;;3.46;71.89
42067;BME280;27734;47.028;28.820;2022-10-16T06:27:29;101812.28;;;3.50;72.31
42067;BME280;27734;47.028;28.820;2022-10-16T06:30:00;101813.06;;;3.59;71.72
42067;BME280;27734;47.028;28.820;2022-10-16T06:32:34;101815.54;;;3.68;71.95
42067;BME280;27734;47.028;28.820;2022-10-16T06:35:07;101809.42;;;3.78;72.07
42067;BME280;27734;47.028;28.820;2022-10-16T06:37:38;101814.75;;;3.90;72.23
42067;BME280;27734;47.028;28.820;2022-10-16T06:40:10;101820.16;;;4.03;72.29
42067;BME280;27734;47.028;28.820;2022-10-16T06:42:41;101829.10;;;4.17;71.99
42067;BME280;27734;47.028;28.820;2022-10-16T06:45:12;101827.77;;;4.32;72.08
42067;BME280;27734;47.028;28.820;2022-10-16T06:47:43;101824.72;;;4.48;72.71
42067;BME280;27734;47.028;28.820;2022-10-16T06:50:14;101831.29;;;4.65;72.50
42067;BME280;27734;47.028;28.820;2022-10-16T06:52:45;101830.95;;;4.83;72.79
42067;BME280;27734;47.028;28.820;2022-10-16T06:55:17;101831.40;;;4.99;72.69
42067;BME280;27734;47.028;28.820;2022-10-16T06:57:49;101831.15;;;5.18;72.74
42067;BME280;27734;47.028;28.820;2022-10-16T07:00:20;101832.59;;;5.37;72.50
42067;BME280;27734;47.028;28.820;2022-10-16T07:02:51;101838.22;;;5.53;72.40
42067;BME280;27734;47.028;28.820;2022-10-16T07:05:22;101835.87;;;5.68;72.03
42067;BME280;27734;47.028;28.820;2022-10-16T07:07:53;101830.00;;;5.83;72.30
42067;BME280;27734;47.028;28.820;2022-10-16T07:10:25;101828.48;;;5.97;71.82
42067;BME280;27734;47.028;28.820;2022-10-16T07:12:56;101833.17;;;6.13;72.05
42067;BME280;27734;47.028;28.820;2022-10-16T07:15:30;101834.32;;;6.28;71.67
42067;BME280;27734;47.028;28.820;2022-10-16T07:18:01;101840.64;;;6.43;71.32
42067;BME280;27734;47.028;28.820;2022-10-16T07:20:32;101839.05;;;6.57;71.27
42067;BME280;27734;47.028;28.820;2022-10-16T07:23:03;101831.34;;;6.71;71.09
42067;BME280;27734;47.028;28.820;2022-10-16T07:25:34;101826.30;;;6.86;70.95
42067;BME280;27734;47.028;28.820;2022-10-16T07:28:06;101822.18;;;7.01;70.30
42067;BME280;27734;47.028;28.820;2022-10-16T07:30:37;101818.97;;;7.17;70.70
42067;BME280;27734;47.028;28.820;2022-10-16T07:33:08;101816.41;;;7.30;70.15
42067;BME280;27734;47.028;28.820;2022-10-16T07:35:48;101821.70;;;7.44;70.26
42067;BME280;27734;47.028;28.820;2022-10-16T07:38:20;101813.78;;;7.55;70.40
42067;BME280;27734;47.028;28.820;2022-10-16T07:40:57;101817.24;;;7.68;69.80
42067;BME280;27734;47.028;28.820;2022-10-16T07:43:29;101809.34;;;7.80;69.84
42067;BME280;27734;47.028;28.820;2022-10-16T07:46:00;101813.79;;;7.94;69.94
42067;BME280;27734;47.028;28.820;2022-10-16T07:48:34;101810.28;;;8.07;69.64
42067;BME280;27734;47.028;28.820;2022-10-16T07:51:06;101811.30;;;8.22;69.61
42067;BME280;27734;47.028;28.820;2022-10-16T07:53:37;101814.92;;;8.38;69.72
42067;BME280;27734;47.028;28.820;2022-10-16T07:56:09;101813.55;;;8.56;68.78
42067;BME280;27734;47.028;28.820;2022-10-16T07:58:40;101821.20;;;8.67;68.35
42067;BME280;27734;47.028;28.820;2022-10-16T08:01:13;101815.03;;;8.79;68.47
42067;BME280;27734;47.028;28.820;2022-10-16T08:03:46;101817.64;;;8.93;69.14
42067;BME280;27734;47.028;28.820;2022-10-16T08:06:18;101822.02;;;9.07;69.14
42067;BME280;27734;47.028;28.820;2022-10-16T08:08:49;101814.01;;;9.19;68.45
42067;BME280;27734;47.028;28.820;2022-10-16T08:11:20;101820.94;;;9.32;68.42
42067;BME280;27734;47.028;28.820;2022-10-16T08:13:52;101813.93;;;9.46;67.92
42067;BME280;27734;47.028;28.820;2022-10-16T08:16:24;101814.64;;;9.58;68.00
42067;BME280;27734;47.028;28.820;2022-10-16T08:18:55;101823.34;;;9.72;68.60
42067;BME280;27734;47.028;28.820;2022-10-16T08:21:26;101820.75;;;9.87;68.67
42067;BME280;27734;47.028;28.820;2022-10-16T08:23:57;101813.52;;;9.98;67.50
42067;BME280;27734;47.028;28.820;2022-10-16T08:26:28;101822.11;;;10.10;67.42
42067;BME280;27734;47.028;28.820;2022-10-16T08:29:00;101819.20;;;10.20;67.88
42067;BME280;27734;47.028;28.820;2022-10-16T08:31:31;101817.20;;;10.31;67.33
42067;BME280;27734;47.028;28.820;2022-10-16T08:34:02;101822.38;;;10.45;67.52
42067;BME280;27734;47.028;28.820;2022-10-16T08:36:33;101827.49;;;10.58;67.68
42067;BME280;27734;47.028;28.820;2022-10-16T08:39:04;101826.41;;;10.69;67.12
42067;BME280;27734;47.028;28.820;2022-10-16T08:42:02;101830.36;;;10.77;66.66
42067;BME280;27734;47.028;28.820;2022-10-16T08:45:04;101829.14;;;10.87;65.99
42067;BME280;27734;47.028;28.820;2022-10-16T08:47:48;101822.87;;;11.00;66.09
42067;BME280;27734;47.028;28.820;2022-10-16T08:50:24;101831.30;;;11.11;66.32
42067;BME280;27734;47.028;28.820;2022-10-16T08:52:58;101832.66;;;11.19;65.84
42067;BME280;27734;47.028;28.820;2022-10-16T08:55:37;101836.11;;;11.35;65.74
42067;BME280;27734;47.028;28.820;2022-10-16T08:58:14;101824.60;;;11.49;64.60
42067;BME280;27734;47.028;28.820;2022-10-16T09:00:48;101824.04;;;11.55;64.33
42067;BME280;27734;47.028;28.820;2022-10-16T09:03:29;101829.45;;;11.58;64.53
42067;BME280;27734;47.028;28.820;2022-10-16T09:06:12;101825.58;;;11.67;64.62
42067;BME280;27734;47.028;28.820;2022-10-16T09:08:55;101820.27;;;11.84;64.74
42067;BME280;27734;47.028;28.820;2022-10-16T09:11:36;101817.57;;;11.99;64.32
42067;BME280;27734;47.028;28.820;2022-10-16T09:14:23;101823.53;;;12.13;64.29
42067;BME280;27734;47.028;28.820;2022-10-16T09:17:20;101817.73;;;12.20;63.23
42067;BME280;27734;47.028;28.820;2022-10-16T09:20:12;101815.33;;;12.25;62.81
42067;BME280;27734;47.028;28.820;2022-10-16T09:22:44;101815.48;;;12.28;59.67
42067;BME280;27734;47.028;28.820;2022-10-16T09:25:18;101813.70;;;12.27;58.76
42067;BME280;27734;47.028;28.820;2022-10-16T09:27:53;101817.38;;;12.30;55.67
42067;BME280;27734;47.028;28.820;2022-10-16T09:30:28;101807.74;;;12.31;56.62
42067;BME280;27734;47.028;28.820;2022-10-16T09:33:00;101808.97;;;12.37;55.63
42067;BME280;27734;47.028;28.820;2022-10-16T09:35:37;101802.42;;;12.47;57.36
42067;BME280;27734;47.028;28.820;2022-10-16T09:38:09;101796.86;;;12.59;57.75
42067;BME280;27734;47.028;28.820;2022-10-16T09:40:51;101792.48;;;12.59;55.88
42067;BME280;27734;47.028;28.820;2022-10-16T09:43:25;101784.73;;;12.63;56.65
42067;BME280;27734;47.028;28.820;2022-10-16T09:46:02;101782.17;;;12.64;55.26
42067;BME280;27734;47.028;28.820;2022-10-16T09:48:37;101781.47;;;12.68;55.17
42067;BME280;27734;47.028;28.820;2022-10-16T09:51:21;101779.41;;;12.81;55.77
42067;BME280;27734;47.028;28.820;2022-10-16T09:53:58;101785.11;;;12.90;54.43
42067;BME280;27734;47.028;28.820;2022-10-16T09:56:31;101773.16;;;12.97;53.76
42067;BME280;27734;47.028;28.820;2022-10-16T09:59:11;101767.24;;;13.02;54.75
42067;BME280;27734;47.028;28.820;2022-10-16T10:01:44;101762.25;;;13.08;55.56
42067;BME280;27734;47.028;28.820;2022-10-16T10:04:16;101758.30;;;13.18;55.22
42067;BME280;27734;47.028;28.820;2022-10-16T10:06:50;101760.93;;;13.18;53.29
42067;BME280;27734;47.028;28.820;2022-10-16T10:09:24;101768.22;;;13.24;54.79
42067;BME280;27734;47.028;28.820;2022-10-16T10:11:57;101760.59;;;13.30;53.76
42067;BME280;27734;47.028;28.820;2022-10-16T10:14:35;101766.11;;;13.35;52.20
42067;BME280;27734;47.028;28.820;2022-10-16T10:17:14;101772.03;;;13.30;50.66
42067;BME280;27734;47.028;28.820;2022-10-16T10:19:54;101762.64;;;13.36;52.51
42067;BME280;27734;47.028;28.820;2022-10-16T10:22:31;101754.73;;;13.36;52.31
42067;BME280;27734;47.028;28.820;2022-10-16T10:30:59;101751.63;;;13.65;52.23
42067;BME280;27734;47.028;28.820;2022-10-16T10:33:40;101757.30;;;13.75;52.74
42067;BME280;27734;47.028;28.820;2022-10-16T10:36:27;101758.52;;;13.83;51.88
42067;BME280;27734;47.028;28.820;2022-10-16T10:39:01;101756.02;;;13.86;51.55
42067;BME280;27734;47.028;28.820;2022-10-16T10:42:00;101754.93;;;13.81;48.62
42067;BME280;27734;47.028;28.820;2022-10-16T10:45:16;101748.86;;;13.83;50.51
42067;BME280;27734;47.028;28.820;2022-10-16T10:48:02;101745.07;;;13.77;48.75
42067;BME280;27734;47.028;28.820;2022-10-16T10:50:41;101747.71;;;13.77;49.39
42067;BME280;27734;47.028;28.820;2022-10-16T10:53:28;101741.61;;;13.78;49.45
42067;BME280;27734;47.028;28.820;2022-10-16T10:56:14;101741.01;;;13.85;50.11
42067;BME280;27734;47.028;28.820;2022-10-16T10:59:16;101734.02;;;13.86;49.13
42067;BME280;27734;47.028;28.820;2022-10-16T11:01:58;101744.57;;;13.86;49.23
42067;BME280;27734;47.028;28.820;2022-10-16T11:04:42;101744.44;;;13.82;48.28
42067;BME280;27734;47.028;28.820;2022-10-16T11:07:19;101737.22;;;13.78;48.37
42067;BME280;27734;47.028;28.820;2022-10-16T11:09:56;101735.28;;;13.74;46.71
42067;BME280;27734;47.028;28.820;2022-10-16T11:12:31;101736.46;;;13.81;48.46
42067;BME280;27734;47.028;28.820;2022-10-16T11:15:11;101735.60;;;13.82;47.34
42067;BME280;27734;47.028;28.820;2022-10-16T11:17:49;101742.76;;;13.84;48.43
42067;BME280;27734;47.028;28.820;2022-10-16T11:20:24;101734.28;;;13.92;48.13
42067;BME280;27734;47.028;28.820;2022-10-16T11:22:59;101736.38;;;14.00;48.70
42067;BME280;27734;47.028;28.820;2022-10-16T11:25:34;101731.28;;;14.05;48.95
42067;BME280;27734;47.028;28.820;2022-10-16T11:28:11;101732.21;;;14.06;47.85
42067;BME280;27734;47.028;28.820;2022-10-16T11:30:49;101731.28;;;14.05;47.06
42067;BME280;27734;47.028;28.820;2022-10-16T11:33:28;101730.97;;;13.97;47.47
42067;BME280;27734;47.028;28.820;2022-10-16T11:36:08;101732.40;;;13.89;46.87
42067;BME280;27734;47.028;28.820;2022-10-16T11:38:46;101726.30;;;13.90;48.02
42067;BME280;27734;47.028;28.820;2022-10-16T11:41:27;101734.28;;;13.92;47.43
42067;BME280;27734;47.028;28.820;2022-10-16T11:44:09;101730.91;;;13.96;47.86
42067;BME280;27734;47.028;28.820;2022-10-16T11:46:51;101731.70;;;13.93;46.71
42067;BME280;27734;47.028;28.820;2022-10-16T11:49:25;101733.42;;;13.93;47.22
42067;BME280;27734;47.028;28.820;2022-10-16T11:52:03;101731.77;;;13.95;47.26
42067;BME280;27734;47.028;28.820;2022-10-16T11:54:43;101730.14;;;13.98;47.53
42067;BME280;27734;47.028;28.820;2022-10-16T11:57:19;101729.45;;;14.02;46.96
42067;BME280;27734;47.028;28.820;2022-10-16T11:59:54;101738.37;;;14.06;47.05
42067;BME280;27734;47.028;28.820;2022-10-16T12:02:33;101730.46;;;14.06;47.52
42067;BME280;27734;47.028;28.820;2022-10-16T12:05:17;101735.67;;;14.05;46.80
42067;BME280;27734;47.028;28.820;2022-10-16T12:07:55;101733.73;;;14.00;47.89
42067;BME280;27734;47.028;28.820;2022-10-16T12:10:30;101741.52;;;13.97;46.89
42067;BME280;27734;47.028;28.820;2022-10-16T12:13:30;101735.30;;;13.95;46.76
42067;BME280;27734;47.028;28.820;2022-10-16T12:16:23;101727.19;;;13.91;46.94
42067;BME280;27734;47.028;28.820;2022-10-16T12:19:14;101728.87;;;13.89;46.68
42067;BME280;27734;47.028;28.820;2022-10-16T12:21:46;101726.86;;;13.83;46.48
42067;BME280;27734;47.028;28.820;2022-10-16T12:24:31;101731.95;;;13.78;47.25
42067;BME280;27734;47.028;28.820;2022-10-16T12:27:04;101734.52;;;13.77;47.18
42067;BME280;27734;47.028;28.820;2022-10-16T12:29:38;101746.88;;;13.78;46.83
42067;BME280;27734;47.028;28.820;2022-10-16T12:32:26;101738.91;;;13.76;45.65
42067;BME280;27734;47.028;28.820;2022-10-16T12:34:59;101742.44;;;13.77;46.73
42067;BME280;27734;47.028;28.820;2022-10-16T12:37:34;101749.52;;;13.78;46.80
42067;BME280;27734;47.028;28.820;2022-10-16T12:40:16;101743.39;;;13.79;45.95
42067;BME280;27734;47.028;28.820;2022-10-16T12:42:54;101743.33;;;13.77;46.04
42067;BME280;27734;47.028;28.820;2022-10-16T12:45:30;101738.91;;;13.76;46.18
42067;BME280;27734;47.028;28.820;2022-10-16T12:48:04;101734.45;;;13.75;46.14
42067;BME280;27734;47.028;28.820;2022-10-16T12:50:38;101736.07;;;13.72;46.02
42067;BME280;27734;47.028;28.820;2022-10-16T12:53:21;101735.94;;;13.69;45.79
42067;BME280;27734;47.028;28.820;2022-10-16T12:56:01;101739.41;;;13.68;45.61
42067;BME280;27734;47.028;28.820;2022-10-16T12:58:45;101734.98;;;13.66;45.63
42067;BME280;27734;47.028;28.820;2022-10-16T13:01:33;101737.63;;;13.66;45.90
42067;BME280;27734;47.028;28.820;2022-10-16T13:04:29;101737.63;;;13.66;45.86
42067;BME280;27734;47.028;28.820;2022-10-16T13:07:24;101726.08;;;13.64;46.30
42067;BME280;27734;47.028;28.820;2022-10-16T13:10:06;101721.67;;;13.63;45.65
42067;BME280;27734;47.028;28.820;2022-10-16T13:12:55;101733.92;;;13.63;45.89
42067;BME280;27734;47.028;28.820;2022-10-16T13:15:38;101729.45;;;13.60;46.00
42067;BME280;27734;47.028;28.820;2022-10-16T13:18:15;101736.36;;;13.58;45.75
42067;BME280;27734;47.028;28.820;2022-10-16T13:21:03;101733.59;;;13.55;45.10
42067;BME280;27734;47.028;28.820;2022-10-16T13:23:41;101725.62;;;13.54;44.97
42067;BME280;27734;47.028;28.820;2022-10-16T13:26:23;101740.55;;;13.53;44.94
42067;BME280;27734;47.028;28.820;2022-10-16T13:29:01;101743.95;;;13.51;44.77
42067;BME280;27734;47.028;28.820;2022-10-16T13:31:32;101743.13;;;13.52;44.73